sensor_id;sensor_type;location;lat;lon;timestamp;temperature;humidity
24412;DHT22;12544;46.760;15.942;2023-05-07T00:00:36;13.30;99.90
24412;DHT22;12544;46.760;15.942;2023-05-07T00:03:02;13.40;99.90
24412;DHT22;12544;46.760;15.942;2023-05-07T00:05:28;13.30;99.90
24412;DHT22;12544;46.760;15.942;2023-05-07T00:07:54;13.20;99.90
24412;DHT22;12544;46.760;15.942;2023-05-07T00:10:27;13.20;99.90
24412;DHT22;12544;46.760;15.942;2023-05-07T00:12:53;13.20;99.90
24412;DHT22;12544;46.760;15.942;2023-05-07T00:15:19;13.20;99.90
24412;DHT22;12544;46.760;15.942;2023-05-07T00:17:45;13.20;99.90
24412;DHT22;12544;46.760;15.942;2023-05-07T00:20:11;13.30;99.90
24412;DHT22;12544;46.760;15.942;2023-05-07T00:22:36;13.20;99.90
24412;DHT22;12544;46.760;15.942;2023-05-07T00:25:03;13.10;99.90
24412;DHT22;12544;46.760;15.942;2023-05-07T00:27:29;13.10;99.90
24412;DHT22;12544;46.760;15.942;2023-05-07T00:29:54;13.00;99.90
24412;DHT22;12544;46.760;15.942;2023-05-07T00:32:21;12.90;99.90
24412;DHT22;12544;46.760;15.942;2023-05-07T00:34:47;12.90;99.90
24412;DHT22;12544;46.760;15.942;2023-05-07T00:37:12;12.90;99.90
24412;DHT22;12544;46.760;15.942;2023-05-07T00:39:38;12.80;99.90
24412;DHT22;12544;46.760;15.942;2023-05-07T00:42:04;12.80;99.90
24412;DHT22;12544;46.760;15.942;2023-05-07T00:44:29;12.70;99.90
24412;DHT22;12544;46.760;15.942;2023-05-07T00:46:59;12.70;99.90
24412;DHT22;12544;46.760;15.942;2023-05-07T00:49:38;12.70;99.90
24412;DHT22;12544;46.760;15.942;2023-05-07T00:52:06;12.60;99.90
24412;DHT22;12544;46.760;15.942;2023-05-07T00:54:34;12.70;99.90
24412;DHT22;12544;46.760;15.942;2023-05-07T00:56:59;12.70;99.90
24412;DHT22;12544;46.760;15.942;2023-05-07T00:59:27;12.70;99.90
24412;DHT22;12544;46.760;15.942;2023-05-07T01:01:52;12.70;99.90
24412;DHT22;12544;46.760;15.942;2023-05-07T01:04:18;12.70;99.90
24412;DHT22;12544;46.760;15.942;2023-05-07T01:06:45;12.60;99.90
24412;DHT22;12544;46.760;15.942;2023-05-07T01:09:11;12.60;99.90
24412;DHT22;12544;46.760;15.942;2023-05-07T01:11:38;12.50;99.90
24412;DHT22;12544;46.760;15.942;2023-05-07T01:14:04;12.30;99.90
24412;DHT22;12544;46.760;15.942;2023-05-07T01:16:31;12.30;99.90
24412;DHT22;12544;46.760;15.942;2023-05-07T01:18:56;12.20;99.90
24412;DHT22;12544;46.760;15.942;2023-05-07T01:21:26;12.10;99.90
24412;DHT22;12544;46.760;15.942;2023-05-07T01:23:53;12.10;99.90
24412;DHT22;12544;46.760;15.942;2023-05-07T01:26:20;12.20;99.90
24412;DHT22;12544;46.760;15.942;2023-05-07T01:28:47;12.30;99.90
24412;DHT22;12544;46.760;15.942;2023-05-07T01:34:36;12.50;99.90
24412;DHT22;12544;46.760;15.942;2023-05-07T01:37:02;12.50;99.90
24412;DHT22;12544;46.760;15.942;2023-05-07T01:39:29;12.40;99.90
24412;DHT22;12544;46.760;15.942;2023-05-07T01:41:56;12.40;99.90
24412;DHT22;12544;46.760;15.942;2023-05-07T01:44:22;12.40;99.90
24412;DHT22;12544;46.760;15.942;2023-05-07T01:46:48;12.40;99.90
24412;DHT22;12544;46.760;15.942;2023-05-07T01:49:14;12.40;99.90
24412;DHT22;12544;46.760;15.942;2023-05-07T01:51:40;12.40;99.90
24412;DHT22;12544;46.760;15.942;2023-05-07T01:54:06;12.40;99.90
24412;DHT22;12544;46.760;15.942;2023-05-07T01:56:33;12.30;99.90
24412;DHT22;12544;46.760;15.942;2023-05-07T01:58:59;12.40;99.90
24412;DHT22;12544;46.760;15.942;2023-05-07T02:01:25;12.50;99.90
24412;DHT22;12544;46.760;15.942;2023-05-07T02:03:50;12.50;99.90
24412;DHT22;12544;46.760;15.942;2023-05-07T02:06:16;12.60;99.90
24412;DHT22;12544;46.760;15.942;2023-05-07T02:08:41;12.60;99.90
24412;DHT22;12544;46.760;15.942;2023-05-07T02:11:07;12.60;99.90
24412;DHT22;12544;46.760;15.942;2023-05-07T02:13:34;12.70;99.90
24412;DHT22;12544;46.760;15.942;2023-05-07T02:16:00;12.70;99.90
24412;DHT22;12544;46.760;15.942;2023-05-07T02:21:47;12.80;99.90
24412;DHT22;12544;46.760;15.942;2023-05-07T02:24:13;12.80;99.90
24412;DHT22;12544;46.760;15.942;2023-05-07T02:26:42;12.90;99.90
24412;DHT22;12544;46.760;15.942;2023-05-07T02:29:08;12.90;99.90
24412;DHT22;12544;46.760;15.942;2023-05-07T02:31:33;13.00;99.90
24412;DHT22;12544;46.760;15.942;2023-05-07T02:34:00;13.00;99.90
24412;DHT22;12544;46.760;15.942;2023-05-07T02:36:25;13.00;99.90
24412;DHT22;12544;46.760;15.942;2023-05-07T02:38:52;13.00;99.90
24412;DHT22;12544;46.760;15.942;2023-05-07T02:41:17;13.10;99.90
24412;DHT22;12544;46.760;15.942;2023-05-07T02:43:43;13.00;99.90
24412;DHT22;12544;46.760;15.942;2023-05-07T02:46:09;13.00;99.90
24412;DHT22;12544;46.760;15.942;2023-05-07T02:48:35;13.00;99.90
24412;DHT22;12544;46.760;15.942;2023-05-07T02:51:02;13.00;99.90
24412;DHT22;12544;46.760;15.942;2023-05-07T02:53:28;13.00;99.90
24412;DHT22;12544;46.760;15.942;2023-05-07T02:55:59;12.90;99.90
24412;DHT22;12544;46.760;15.942;2023-05-07T02:58:25;12.90;99.90
24412;DHT22;12544;46.760;15.942;2023-05-07T03:00:51;12.90;99.90
24412;DHT22;12544;46.760;15.942;2023-05-07T03:03:17;12.80;99.90
24412;DHT22;12544;46.760;15.942;2023-05-07T03:05:42;12.60;99.90
24412;DHT22;12544;46.760;15.942;2023-05-07T03:08:09;12.50;99.90
24412;DHT22;12544;46.760;15.942;2023-05-07T03:10:35;12.40;99.90
24412;DHT22;12544;46.760;15.942;2023-05-07T03:13:01;12.50;99.90
24412;DHT22;12544;46.760;15.942;2023-05-07T03:18:48;12.40;99.90
24412;DHT22;12544;46.760;15.942;2023-05-07T03:21:14;12.30;99.90
24412;DHT22;12544;46.760;15.942;2023-05-07T03:23:40;12.30;99.90
24412;DHT22;12544;46.760;15.942;2023-05-07T03:26:05;12.30;99.90
24412;DHT22;12544;46.760;15.942;2023-05-07T03:28:31;12.30;99.90
24412;DHT22;12544;46.760;15.942;2023-05-07T03:30:56;12.30;99.90
24412;DHT22;12544;46.760;15.942;2023-05-07T03:33:22;12.30;99.90
24412;DHT22;12544;46.760;15.942;2023-05-07T03:35:48;12.30;99.90
24412;DHT22;12544;46.760;15.942;2023-05-07T03:38:13;12.40;99.90
24412;DHT22;12544;46.760;15.942;2023-05-07T03:40:39;12.40;99.90
24412;DHT22;12544;46.760;15.942;2023-05-07T03:43:05;12.40;99.90
24412;DHT22;12544;46.760;15.942;2023-05-07T03:45:30;12.40;99.90
24412;DHT22;12544;46.760;15.942;2023-05-07T03:47:56;12.30;99.90
24412;DHT22;12544;46.760;15.942;2023-05-07T03:50:21;12.30;99.90
24412;DHT22;12544;46.760;15.942;2023-05-07T03:52:47;12.20;99.90
24412;DHT22;12544;46.760;15.942;2023-05-07T03:55:12;12.10;99.90
24412;DHT22;12544;46.760;15.942;2023-05-07T03:57:38;12.10;99.90
24412;DHT22;12544;46.760;15.942;2023-05-07T04:00:04;12.10;99.90
24412;DHT22;12544;46.760;15.942;2023-05-07T04:02:31;12.20;99.90
24412;DHT22;12544;46.760;15.942;2023-05-07T04:04:56;12.20;99.90
24412;DHT22;12544;46.760;15.942;2023-05-07T04:07:22;12.30;99.90
24412;DHT22;12544;46.760;15.942;2023-05-07T04:09:47;12.40;99.90
24412;DHT22;12544;46.760;15.942;2023-05-07T04:12:13;12.40;99.90
24412;DHT22;12544;46.760;15.942;2023-05-07T04:14:39;12.50;99.90
24412;DHT22;12544;46.760;15.942;2023-05-07T04:17:04;12.40;99.90
24412;DHT22;12544;46.760;15.942;2023-05-07T04:19:33;12.40;99.90
24412;DHT22;12544;46.760;15.942;2023-05-07T04:21:59;12.50;99.90
24412;DHT22;12544;46.760;15.942;2023-05-07T04:24:24;12.50;99.90
24412;DHT22;12544;46.760;15.942;2023-05-07T04:26:50;12.50;99.90
24412;DHT22;12544;46.760;15.942;2023-05-07T04:29:16;12.50;99.90
24412;DHT22;12544;46.760;15.942;2023-05-07T04:31:42;12.50;99.90
24412;DHT22;12544;46.760;15.942;2023-05-07T04:34:10;12.50;99.90
24412;DHT22;12544;46.760;15.942;2023-05-07T04:36:37;12.60;99.90
24412;DHT22;12544;46.760;15.942;2023-05-07T04:39:03;12.60;99.90
24412;DHT22;12544;46.760;15.942;2023-05-07T04:41:29;12.70;99.90
24412;DHT22;12544;46.760;15.942;2023-05-07T04:43:55;12.70;99.90
24412;DHT22;12544;46.760;15.942;2023-05-07T04:49:43;12.70;99.90
24412;DHT22;12544;46.760;15.942;2023-05-07T04:52:09;12.70;99.90
24412;DHT22;12544;46.760;15.942;2023-05-07T04:54:35;12.60;99.90
24412;DHT22;12544;46.760;15.942;2023-05-07T04:57:00;12.70;99.90
24412;DHT22;12544;46.760;15.942;2023-05-07T04:59:26;12.70;99.90
24412;DHT22;12544;46.760;15.942;2023-05-07T05:01:51;12.70;99.90
24412;DHT22;12544;46.760;15.942;2023-05-07T05:04:17;12.80;99.90
24412;DHT22;12544;46.760;15.942;2023-05-07T05:06:43;12.80;99.90
24412;DHT22;12544;46.760;15.942;2023-05-07T05:09:08;12.80;99.90
24412;DHT22;12544;46.760;15.942;2023-05-07T05:11:34;12.80;99.90
24412;DHT22;12544;46.760;15.942;2023-05-07T05:14:00;12.90;99.90
24412;DHT22;12544;46.760;15.942;2023-05-07T05:16:26;12.90;99.90
24412;DHT22;12544;46.760;15.942;2023-05-07T05:18:51;13.00;99.90
24412;DHT22;12544;46.760;15.942;2023-05-07T05:21:17;13.10;99.90
24412;DHT22;12544;46.760;15.942;2023-05-07T05:23:43;13.10;99.90
24412;DHT22;12544;46.760;15.942;2023-05-07T05:26:09;13.20;99.90
24412;DHT22;12544;46.760;15.942;2023-05-07T05:28:34;13.10;99.90
24412;DHT22;12544;46.760;15.942;2023-05-07T05:31:00;13.20;99.90
24412;DHT22;12544;46.760;15.942;2023-05-07T05:33:26;13.20;99.90
24412;DHT22;12544;46.760;15.942;2023-05-07T05:35:53;13.30;99.90
24412;DHT22;12544;46.760;15.942;2023-05-07T05:38:18;13.30;99.90
24412;DHT22;12544;46.760;15.942;2023-05-07T05:40:44;13.40;99.90
24412;DHT22;12544;46.760;15.942;2023-05-07T05:43:10;13.50;99.90
24412;DHT22;12544;46.760;15.942;2023-05-07T05:45:35;13.50;99.90
24412;DHT22;12544;46.760;15.942;2023-05-07T05:48:01;13.60;99.90
24412;DHT22;12544;46.760;15.942;2023-05-07T05:50:27;13.60;99.90
24412;DHT22;12544;46.760;15.942;2023-05-07T05:52:52;13.70;99.90
24412;DHT22;12544;46.760;15.942;2023-05-07T05:55:18;13.80;99.90
24412;DHT22;12544;46.760;15.942;2023-05-07T05:57:43;13.90;99.90
24412;DHT22;12544;46.760;15.942;2023-05-07T06:00:10;13.90;99.90
24412;DHT22;12544;46.760;15.942;2023-05-07T06:05:57;14.10;99.90
24412;DHT22;12544;46.760;15.942;2023-05-07T06:08:23;14.10;99.90
24412;DHT22;12544;46.760;15.942;2023-05-07T06:10:49;14.20;99.90
24412;DHT22;12544;46.760;15.942;2023-05-07T06:13:15;14.20;99.90
24412;DHT22;12544;46.760;15.942;2023-05-07T06:15:41;14.30;99.90
24412;DHT22;12544;46.760;15.942;2023-05-07T06:18:06;14.40;99.90
24412;DHT22;12544;46.760;15.942;2023-05-07T06:23:54;14.50;99.90
24412;DHT22;12544;46.760;15.942;2023-05-07T06:26:20;14.60;99.90
24412;DHT22;12544;46.760;15.942;2023-05-07T06:28:46;14.60;99.90
24412;DHT22;12544;46.760;15.942;2023-05-07T06:31:16;14.70;99.90
24412;DHT22;12544;46.760;15.942;2023-05-07T06:33:44;14.80;99.90
24412;DHT22;12544;46.760;15.942;2023-05-07T06:36:09;14.90;99.90
24412;DHT22;12544;46.760;15.942;2023-05-07T06:38:35;15.00;99.90
24412;DHT22;12544;46.760;15.942;2023-05-07T06:41:01;15.20;99.90
24412;DHT22;12544;46.760;15.942;2023-05-07T06:43:27;15.30;99.90
24412;DHT22;12544;46.760;15.942;2023-05-07T06:45:52;15.40;99.90
24412;DHT22;12544;46.760;15.942;2023-05-07T06:48:18;15.60;99.90
24412;DHT22;12544;46.760;15.942;2023-05-07T06:50:44;15.70;99.90
24412;DHT22;12544;46.760;15.942;2023-05-07T06:53:09;15.90;99.90
24412;DHT22;12544;46.760;15.942;2023-05-07T06:55:35;16.10;99.90
24412;DHT22;12544;46.760;15.942;2023-05-07T06:58:00;16.30;99.90
24412;DHT22;12544;46.760;15.942;2023-05-07T07:00:29;16.40;99.90
24412;DHT22;12544;46.760;15.942;2023-05-07T07:02:56;16.50;99.90
24412;DHT22;12544;46.760;15.942;2023-05-07T07:05:21;16.60;99.90
24412;DHT22;12544;46.760;15.942;2023-05-07T07:07:47;16.70;99.90
24412;DHT22;12544;46.760;15.942;2023-05-07T07:10:21;16.80;99.90
24412;DHT22;12544;46.760;15.942;2023-05-07T07:16:09;17.10;99.90
24412;DHT22;12544;46.760;15.942;2023-05-07T07:18:34;17.20;99.90
24412;DHT22;12544;46.760;15.942;2023-05-07T07:21:01;17.20;99.90
24412;DHT22;12544;46.760;15.942;2023-05-07T07:23:26;17.30;99.90
24412;DHT22;12544;46.760;15.942;2023-05-07T07:25:52;17.20;99.90
24412;DHT22;12544;46.760;15.942;2023-05-07T07:28:20;17.30;99.90
24412;DHT22;12544;46.760;15.942;2023-05-07T07:30:45;17.50;99.90
24412;DHT22;12544;46.760;15.942;2023-05-07T07:33:11;17.70;99.90
24412;DHT22;12544;46.760;15.942;2023-05-07T07:35:36;17.80;99.90
24412;DHT22;12544;46.760;15.942;2023-05-07T07:38:02;17.90;99.90
24412;DHT22;12544;46.760;15.942;2023-05-07T07:43:55;18.20;99.90
24412;DHT22;12544;46.760;15.942;2023-05-07T07:46:20;18.30;99.90
24412;DHT22;12544;46.760;15.942;2023-05-07T07:48:46;18.40;99.90
24412;DHT22;12544;46.760;15.942;2023-05-07T07:51:12;18.40;99.90
24412;DHT22;12544;46.760;15.942;2023-05-07T07:53:37;18.50;99.90
24412;DHT22;12544;46.760;15.942;2023-05-07T07:56:03;18.50;99.90
24412;DHT22;12544;46.760;15.942;2023-05-07T07:58:29;18.60;99.90
24412;DHT22;12544;46.760;15.942;2023-05-07T08:00:55;18.80;99.90
24412;DHT22;12544;46.760;15.942;2023-05-07T08:03:21;18.70;99.90
24412;DHT22;12544;46.760;15.942;2023-05-07T08:05:47;18.70;99.90
24412;DHT22;12544;46.760;15.942;2023-05-07T08:08:15;18.80;99.90
24412;DHT22;12544;46.760;15.942;2023-05-07T08:10:41;18.90;99.90
24412;DHT22;12544;46.760;15.942;2023-05-07T08:13:07;19.20;99.90
24412;DHT22;12544;46.760;15.942;2023-05-07T08:15:32;19.40;99.90
24412;DHT22;12544;46.760;15.942;2023-05-07T08:17:58;19.70;99.90
24412;DHT22;12544;46.760;15.942;2023-05-07T08:20:25;19.90;99.90
24412;DHT22;12544;46.760;15.942;2023-05-07T08:22:51;20.30;99.90
24412;DHT22;12544;46.760;15.942;2023-05-07T08:25:17;20.50;99.90
24412;DHT22;12544;46.760;15.942;2023-05-07T08:27:42;20.70;99.90
24412;DHT22;12544;46.760;15.942;2023-05-07T08:30:10;20.80;99.90
24412;DHT22;12544;46.760;15.942;2023-05-07T08:32:36;21.00;99.90
24412;DHT22;12544;46.760;15.942;2023-05-07T08:35:02;21.10;99.90
24412;DHT22;12544;46.760;15.942;2023-05-07T08:37:27;21.20;99.90
24412;DHT22;12544;46.760;15.942;2023-05-07T08:43:14;21.00;99.90
24412;DHT22;12544;46.760;15.942;2023-05-07T08:45:41;20.80;99.90
24412;DHT22;12544;46.760;15.942;2023-05-07T08:48:14;20.80;99.90
24412;DHT22;12544;46.760;15.942;2023-05-07T08:50:40;20.80;99.90
24412;DHT22;12544;46.760;15.942;2023-05-07T08:53:06;20.70;99.90
24412;DHT22;12544;46.760;15.942;2023-05-07T08:55:32;20.40;99.90
24412;DHT22;12544;46.760;15.942;2023-05-07T08:57:58;20.30;99.90
24412;DHT22;12544;46.760;15.942;2023-05-07T09:00:24;20.30;99.90
24412;DHT22;12544;46.760;15.942;2023-05-07T09:02:50;20.20;99.90
24412;DHT22;12544;46.760;15.942;2023-05-07T09:05:16;20.10;99.90
24412;DHT22;12544;46.760;15.942;2023-05-07T09:07:41;20.20;99.90
24412;DHT22;12544;46.760;15.942;2023-05-07T09:10:07;20.30;99.90
24412;DHT22;12544;46.760;15.942;2023-05-07T09:12:33;20.70;99.90
24412;DHT22;12544;46.760;15.942;2023-05-07T09:15:00;21.10;99.90
24412;DHT22;12544;46.760;15.942;2023-05-07T09:17:26;21.50;99.90
24412;DHT22;12544;46.760;15.942;2023-05-07T09:19:52;21.70;99.90
24412;DHT22;12544;46.760;15.942;2023-05-07T09:22:19;21.60;99.90
24412;DHT22;12544;46.760;15.942;2023-05-07T09:24:48;21.60;99.90
24412;DHT22;12544;46.760;15.942;2023-05-07T09:27:14;21.60;99.90
24412;DHT22;12544;46.760;15.942;2023-05-07T09:29:40;21.50;99.90
24412;DHT22;12544;46.760;15.942;2023-05-07T09:32:07;21.70;99.90
24412;DHT22;12544;46.760;15.942;2023-05-07T09:34:33;21.30;99.90
24412;DHT22;12544;46.760;15.942;2023-05-07T09:37:01;21.40;99.90
24412;DHT22;12544;46.760;15.942;2023-05-07T09:39:42;21.50;99.90
24412;DHT22;12544;46.760;15.942;2023-05-07T09:42:07;21.50;99.90
24412;DHT22;12544;46.760;15.942;2023-05-07T09:44:34;21.50;99.90
24412;DHT22;12544;46.760;15.942;2023-05-07T09:47:00;21.60;99.90
24412;DHT22;12544;46.760;15.942;2023-05-07T09:49:30;21.70;99.90
24412;DHT22;12544;46.760;15.942;2023-05-07T09:52:00;21.80;99.90
24412;DHT22;12544;46.760;15.942;2023-05-07T09:54:26;21.90;99.90
24412;DHT22;12544;46.760;15.942;2023-05-07T09:56:55;21.90;99.90
24412;DHT22;12544;46.760;15.942;2023-05-07T09:59:21;21.90;99.90
24412;DHT22;12544;46.760;15.942;2023-05-07T10:01:48;21.90;99.90
24412;DHT22;12544;46.760;15.942;2023-05-07T10:04:14;21.70;99.90
24412;DHT22;12544;46.760;15.942;2023-05-07T10:06:41;21.50;99.90
24412;DHT22;12544;46.760;15.942;2023-05-07T10:09:09;21.10;99.90
24412;DHT22;12544;46.760;15.942;2023-05-07T10:11:37;20.90;99.90
24412;DHT22;12544;46.760;15.942;2023-05-07T10:14:03;20.80;99.90
24412;DHT22;12544;46.760;15.942;2023-05-07T10:16:32;20.80;99.90
24412;DHT22;12544;46.760;15.942;2023-05-07T10:18:58;20.70;99.90
24412;DHT22;12544;46.760;15.942;2023-05-07T10:21:24;20.80;99.90
24412;DHT22;12544;46.760;15.942;2023-05-07T10:24:15;20.80;99.90
24412;DHT22;12544;46.760;15.942;2023-05-07T10:26:44;20.90;99.90
24412;DHT22;12544;46.760;15.942;2023-05-07T10:29:39;20.90;99.90
24412;DHT22;12544;46.760;15.942;2023-05-07T10:34:47;20.80;99.90
24412;DHT22;12544;46.760;15.942;2023-05-07T10:37:14;20.50;99.90
24412;DHT22;12544;46.760;15.942;2023-05-07T10:39:40;20.50;99.90
24412;DHT22;12544;46.760;15.942;2023-05-07T10:42:10;20.60;99.90
24412;DHT22;12544;46.760;15.942;2023-05-07T10:48:16;20.70;99.90
24412;DHT22;12544;46.760;15.942;2023-05-07T10:50:43;20.70;99.90
24412;DHT22;12544;46.760;15.942;2023-05-07T10:55:48;20.90;99.90
24412;DHT22;12544;46.760;15.942;2023-05-07T10:58:24;20.80;99.90
24412;DHT22;12544;46.760;15.942;2023-05-07T11:00:57;21.10;99.90
24412;DHT22;12544;46.760;15.942;2023-05-07T11:03:24;21.20;99.90
24412;DHT22;12544;46.760;15.942;2023-05-07T11:06:12;21.50;99.90
24412;DHT22;12544;46.760;15.942;2023-05-07T11:08:57;21.60;99.90
24412;DHT22;12544;46.760;15.942;2023-05-07T11:11:45;21.70;99.90
24412;DHT22;12544;46.760;15.942;2023-05-07T11:14:43;21.80;99.90
24412;DHT22;12544;46.760;15.942;2023-05-07T11:17:10;21.90;99.90
24412;DHT22;12544;46.760;15.942;2023-05-07T11:19:52;22.40;99.90
24412;DHT22;12544;46.760;15.942;2023-05-07T11:25:00;22.80;99.90
24412;DHT22;12544;46.760;15.942;2023-05-07T11:27:26;23.10;99.90
24412;DHT22;12544;46.760;15.942;2023-05-07T11:29:52;23.10;99.90
24412;DHT22;12544;46.760;15.942;2023-05-07T11:35:42;23.00;99.90
24412;DHT22;12544;46.760;15.942;2023-05-07T11:38:08;23.00;99.90
24412;DHT22;12544;46.760;15.942;2023-05-07T11:40:33;23.00;99.90
24412;DHT22;12544;46.760;15.942;2023-05-07T11:42:59;22.70;99.90
24412;DHT22;12544;46.760;15.942;2023-05-07T11:45:35;22.80;99.90
24412;DHT22;12544;46.760;15.942;2023-05-07T11:48:01;22.90;99.90
24412;DHT22;12544;46.760;15.942;2023-05-07T11:50:27;23.20;99.90
24412;DHT22;12544;46.760;15.942;2023-05-07T11:52:53;23.10;99.90
24412;DHT22;12544;46.760;15.942;2023-05-07T11:55:18;23.00;99.90
24412;DHT22;12544;46.760;15.942;2023-05-07T12:01:09;23.00;99.90
24412;DHT22;12544;46.760;15.942;2023-05-07T12:03:35;23.60;99.90
24412;DHT22;12544;46.760;15.942;2023-05-07T12:06:05;23.80;99.90
24412;DHT22;12544;46.760;15.942;2023-05-07T12:08:31;23.90;99.90
24412;DHT22;12544;46.760;15.942;2023-05-07T12:10:56;24.20;99.90
24412;DHT22;12544;46.760;15.942;2023-05-07T12:13:24;24.30;99.90
24412;DHT22;12544;46.760;15.942;2023-05-07T12:15:54;24.30;99.90
24412;DHT22;12544;46.760;15.942;2023-05-07T12:18:21;24.40;99.90
24412;DHT22;12544;46.760;15.942;2023-05-07T12:20:47;24.40;99.90
24412;DHT22;12544;46.760;15.942;2023-05-07T12:23:13;24.20;99.90
24412;DHT22;12544;46.760;15.942;2023-05-07T12:25:41;24.50;99.90
24412;DHT22;12544;46.760;15.942;2023-05-07T12:28:13;24.70;99.90
24412;DHT22;12544;46.760;15.942;2023-05-07T12:30:42;25.10;99.90
24412;DHT22;12544;46.760;15.942;2023-05-07T12:33:08;25.30;99.90
24412;DHT22;12544;46.760;15.942;2023-05-07T12:35:39;25.60;98.30
24412;DHT22;12544;46.760;15.942;2023-05-07T12:38:09;25.60;99.40
24412;DHT22;12544;46.760;15.942;2023-05-07T12:40:36;25.10;99.30
24412;DHT22;12544;46.760;15.942;2023-05-07T12:43:02;24.50;99.90
24412;DHT22;12544;46.760;15.942;2023-05-07T12:45:28;24.20;99.90
24412;DHT22;12544;46.760;15.942;2023-05-07T12:47:53;23.80;99.90
24412;DHT22;12544;46.760;15.942;2023-05-07T12:50:19;23.20;99.90
24412;DHT22;12544;46.760;15.942;2023-05-07T12:53:20;23.00;99.90
24412;DHT22;12544;46.760;15.942;2023-05-07T12:55:48;22.90;99.90
24412;DHT22;12544;46.760;15.942;2023-05-07T12:58:16;22.60;99.90
24412;DHT22;12544;46.760;15.942;2023-05-07T13:00:42;22.40;99.90
24412;DHT22;12544;46.760;15.942;2023-05-07T13:03:09;22.50;99.90
24412;DHT22;12544;46.760;15.942;2023-05-07T13:05:35;22.70;99.90
24412;DHT22;12544;46.760;15.942;2023-05-07T13:08:01;22.80;99.90
24412;DHT22;12544;46.760;15.942;2023-05-07T13:10:27;23.00;99.90
24412;DHT22;12544;46.760;15.942;2023-05-07T13:12:53;23.30;99.90
24412;DHT22;12544;46.760;15.942;2023-05-07T13:15:19;23.50;99.90
24412;DHT22;12544;46.760;15.942;2023-05-07T13:17:45;23.50;99.90
24412;DHT22;12544;46.760;15.942;2023-05-07T13:20:11;23.40;99.90
24412;DHT22;12544;46.760;15.942;2023-05-07T13:22:40;23.30;99.90
24412;DHT22;12544;46.760;15.942;2023-05-07T13:25:06;23.20;99.90
24412;DHT22;12544;46.760;15.942;2023-05-07T13:27:32;23.30;99.90
24412;DHT22;12544;46.760;15.942;2023-05-07T13:30:02;23.30;99.90
24412;DHT22;12544;46.760;15.942;2023-05-07T13:32:28;23.10;99.90
24412;DHT22;12544;46.760;15.942;2023-05-07T13:34:54;23.00;99.90
24412;DHT22;12544;46.760;15.942;2023-05-07T13:37:19;22.90;99.90
24412;DHT22;12544;46.760;15.942;2023-05-07T13:39:45;22.90;99.90
24412;DHT22;12544;46.760;15.942;2023-05-07T13:42:11;23.10;99.90
24412;DHT22;12544;46.760;15.942;2023-05-07T13:44:36;23.10;99.90
24412;DHT22;12544;46.760;15.942;2023-05-07T13:47:02;23.00;99.90
24412;DHT22;12544;46.760;15.942;2023-05-07T13:49:28;23.10;99.90
24412;DHT22;12544;46.760;15.942;2023-05-07T13:51:53;22.90;99.90
24412;DHT22;12544;46.760;15.942;2023-05-07T13:54:19;22.80;99.90
24412;DHT22;12544;46.760;15.942;2023-05-07T13:56:44;22.80;99.90
24412;DHT22;12544;46.760;15.942;2023-05-07T13:59:10;22.70;99.90
24412;DHT22;12544;46.760;15.942;2023-05-07T14:01:36;22.60;99.90
24412;DHT22;12544;46.760;15.942;2023-05-07T14:04:01;22.80;99.90
24412;DHT22;12544;46.760;15.942;2023-05-07T14:06:27;22.90;99.90
24412;DHT22;12544;46.760;15.942;2023-05-07T14:08:52;22.60;99.90
24412;DHT22;12544;46.760;15.942;2023-05-07T14:14:33;22.70;99.90
24412;DHT22;12544;46.760;15.942;2023-05-07T14:16:58;22.80;99.90
24412;DHT22;12544;46.760;15.942;2023-05-07T14:19:24;22.70;99.90
24412;DHT22;12544;46.760;15.942;2023-05-07T14:21:49;22.50;99.90
24412;DHT22;12544;46.760;15.942;2023-05-07T14:24:15;22.40;99.90
24412;DHT22;12544;46.760;15.942;2023-05-07T14:26:41;22.10;99.90
24412;DHT22;12544;46.760;15.942;2023-05-07T14:29:06;22.20;99.90
24412;DHT22;12544;46.760;15.942;2023-05-07T14:31:33;22.20;99.90
24412;DHT22;12544;46.760;15.942;2023-05-07T14:33:59;21.90;99.90
24412;DHT22;12544;46.760;15.942;2023-05-07T14:36:25;21.90;99.90
24412;DHT22;12544;46.760;15.942;2023-05-07T14:38:52;21.90;99.90
24412;DHT22;12544;46.760;15.942;2023-05-07T14:41:19;22.00;99.90
24412;DHT22;12544;46.760;15.942;2023-05-07T14:43:46;21.80;99.90
24412;DHT22;12544;46.760;15.942;2023-05-07T14:46:16;21.70;99.90
24412;DHT22;12544;46.760;15.942;2023-05-07T14:48:43;21.60;99.90
24412;DHT22;12544;46.760;15.942;2023-05-07T14:51:10;21.50;99.90
24412;DHT22;12544;46.760;15.942;2023-05-07T14:53:36;21.40;99.90
24412;DHT22;12544;46.760;15.942;2023-05-07T14:56:01;21.30;99.90
24412;DHT22;12544;46.760;15.942;2023-05-07T14:58:28;21.00;99.90
24412;DHT22;12544;46.760;15.942;2023-05-07T15:00:54;20.90;99.90
24412;DHT22;12544;46.760;15.942;2023-05-07T15:03:19;20.60;99.90
24412;DHT22;12544;46.760;15.942;2023-05-07T15:05:45;19.80;99.90
24412;DHT22;12544;46.760;15.942;2023-05-07T15:08:11;19.40;99.90
24412;DHT22;12544;46.760;15.942;2023-05-07T15:10:37;19.20;99.90
24412;DHT22;12544;46.760;15.942;2023-05-07T15:13:10;18.90;99.90
24412;DHT22;12544;46.760;15.942;2023-05-07T15:15:36;18.60;99.90
24412;DHT22;12544;46.760;15.942;2023-05-07T15:18:02;18.10;99.90
24412;DHT22;12544;46.760;15.942;2023-05-07T15:20:28;17.40;99.90
24412;DHT22;12544;46.760;15.942;2023-05-07T15:22:54;16.90;99.90
24412;DHT22;12544;46.760;15.942;2023-05-07T15:25:20;16.60;99.90
24412;DHT22;12544;46.760;15.942;2023-05-07T15:27:46;16.30;99.90
24412;DHT22;12544;46.760;15.942;2023-05-07T15:30:12;16.20;99.90
24412;DHT22;12544;46.760;15.942;2023-05-07T15:32:40;16.20;99.90
24412;DHT22;12544;46.760;15.942;2023-05-07T15:35:06;16.20;99.90
24412;DHT22;12544;46.760;15.942;2023-05-07T15:37:33;16.10;99.90
24412;DHT22;12544;46.760;15.942;2023-05-07T15:39:58;16.00;99.90
24412;DHT22;12544;46.760;15.942;2023-05-07T15:42:24;15.90;99.90
24412;DHT22;12544;46.760;15.942;2023-05-07T15:44:50;15.90;99.90
24412;DHT22;12544;46.760;15.942;2023-05-07T15:47:16;15.90;99.90
24412;DHT22;12544;46.760;15.942;2023-05-07T15:49:42;15.80;99.90
24412;DHT22;12544;46.760;15.942;2023-05-07T15:52:08;15.80;99.90
24412;DHT22;12544;46.760;15.942;2023-05-07T15:54:40;15.80;99.90
24412;DHT22;12544;46.760;15.942;2023-05-07T15:57:06;15.80;99.90
24412;DHT22;12544;46.760;15.942;2023-05-07T15:59:32;15.70;99.90
24412;DHT22;12544;46.760;15.942;2023-05-07T16:01:58;15.60;99.90
24412;DHT22;12544;46.760;15.942;2023-05-07T16:04:24;15.50;99.90